createdAt,value
2022-12-24T00:00:46.445Z,90.37
2022-12-24T00:01:46.371Z,90.27
2022-12-24T00:02:46.544Z,90.37
2022-12-24T00:03:46.524Z,90.17
2022-12-24T00:04:46.377Z,90.27
2022-12-24T00:05:46.321Z,90.27
2022-12-24T00:06:46.341Z,90.31
2022-12-24T00:07:46.304Z,90.41
2022-12-24T00:08:46.326Z,90.52
2022-12-24T00:09:46.296Z,90.62
2022-12-24T00:10:46.267Z,90.62
2022-12-24T00:11:46.241Z,90.41
2022-12-24T00:12:46.281Z,90.72
2022-12-24T00:13:46.271Z,90.52
2022-12-24T00:14:46.233Z,90.62
2022-12-24T00:15:46.221Z,90.62
2022-12-24T00:16:46.242Z,90.72
2022-12-24T00:17:46.175Z,90.82
2022-12-24T00:18:47.119Z,90.92
2022-12-24T00:19:46.175Z,90.92
2022-12-24T00:20:46.169Z,90.82
2022-12-24T00:21:46.123Z,90.92
2022-12-24T00:22:46.136Z,91.13
2022-12-24T00:23:46.088Z,91.13
2022-12-24T00:24:46.127Z,91.27
2022-12-24T00:25:46.111Z,91.27
2022-12-24T00:26:46.084Z,91.17
2022-12-24T00:27:46.037Z,91.27
2022-12-24T00:28:46.086Z,91.38
2022-12-24T00:29:46.026Z,91.58
2022-12-24T00:30:46.058Z,91.48
2022-12-24T00:31:46.013Z,91.48
2022-12-24T00:32:46.005Z,91.27
2022-12-24T00:33:45.956Z,91.27
2022-12-24T00:34:45.991Z,91.07
2022-12-24T00:35:46.009Z,91.27
2022-12-24T00:36:45.926Z,91.58
2022-12-24T00:37:45.905Z,91.58
2022-12-24T00:38:45.916Z,91.69
2022-12-24T00:39:45.878Z,91.78
2022-12-24T00:40:45.876Z,91.99
2022-12-24T00:41:45.892Z,91.99
2022-12-24T00:42:45.878Z,92.19
2022-12-24T00:43:45.826Z,92.40
2022-12-24T00:44:45.814Z,92.50
2022-12-24T00:45:45.876Z,92.40
2022-12-24T00:46:45.961Z,92.50
2022-12-24T00:47:45.787Z,92.50
2022-12-24T00:48:45.808Z,92.50
2022-12-24T00:49:45.791Z,92.60
2022-12-24T00:50:45.861Z,92.71
2022-12-24T00:51:45.760Z,92.56
2022-12-24T00:52:45.757Z,92.66
2022-12-24T00:53:45.813Z,92.87
2022-12-24T00:54:45.712Z,93.07
2022-12-24T00:55:45.738Z,93.18
2022-12-24T00:56:45.755Z,93.18
2022-12-24T00:57:45.651Z,93.43
2022-12-24T00:58:46.443Z,93.43
2022-12-24T00:59:45.653Z,93.48
2022-12-24T01:00:45.641Z,93.48
2022-12-24T01:01:45.729Z,93.69
2022-12-24T01:02:46.008Z,93.59
2022-12-24T01:03:45.680Z,93.69
2022-12-24T01:04:45.785Z,93.69
2022-12-24T01:05:45.584Z,93.79
2022-12-24T01:06:45.631Z,93.79
2022-12-24T01:07:45.640Z,93.89
2022-12-24T01:08:45.625Z,94.10
2022-12-24T01:09:45.590Z,94.20
2022-12-24T01:10:45.548Z,94.51
2022-12-24T01:11:49.848Z,94.75
2022-12-24T01:12:45.508Z,94.96
2022-12-24T01:13:45.551Z,94.85
2022-12-24T01:14:45.501Z,94.85
2022-12-24T01:15:45.563Z,94.75
2022-12-24T01:16:45.543Z,94.71
2022-12-24T01:17:45.456Z,94.75
2022-12-24T01:18:45.520Z,94.85
2022-12-24T01:19:45.427Z,94.85
2022-12-24T01:20:45.576Z,94.85
2022-12-24T01:21:45.396Z,94.75
2022-12-24T01:22:45.416Z,94.40
2022-12-24T01:23:45.406Z,94.40
2022-12-24T01:24:45.551Z,94.40
2022-12-24T01:25:45.425Z,94.20
2022-12-24T01:26:45.400Z,94.20
2022-12-24T01:27:45.443Z,94.20
2022-12-24T01:28:45.434Z,94.20
2022-12-24T01:29:45.288Z,94.20
2022-12-24T01:30:45.303Z,94.10
2022-12-24T01:31:45.232Z,93.99
2022-12-24T01:32:45.330Z,94.10
2022-12-24T01:33:45.297Z,94.14
2022-12-24T01:34:45.334Z,94.04
2022-12-24T01:35:45.419Z,94.14
2022-12-24T01:36:45.207Z,94.04
2022-12-24T01:37:45.147Z,93.38
2022-12-24T01:38:45.167Z,93.07
2022-12-24T01:39:45.156Z,92.66
2022-12-24T01:40:45.201Z,92.56
2022-12-24T01:41:45.157Z,92.56
2022-12-24T01:42:52.947Z,92.56
2022-12-24T01:43:45.037Z,92.36
2022-12-24T01:44:45.071Z,92.36
2022-12-24T01:45:45.041Z,91.95
2022-12-24T01:46:45.099Z,91.85
2022-12-24T01:47:44.985Z,91.95
2022-12-24T01:48:45.016Z,92.05
2022-12-24T01:49:45.000Z,92.05
2022-12-24T01:50:45.030Z,92.15
2022-12-24T01:51:44.964Z,92.25
2022-12-24T01:52:44.938Z,92.25
2022-12-24T01:53:44.942Z,92.36
2022-12-24T01:54:44.915Z,92.25
2022-12-24T01:55:44.895Z,92.25
2022-12-24T01:56:44.910Z,92.25
2022-12-24T01:57:44.880Z,92.15
2022-12-24T01:58:44.879Z,92.19
2022-12-24T01:59:44.880Z,92.10
2022-12-24T02:00:44.863Z,91.99
2022-12-24T02:01:44.924Z,91.95
2022-12-24T02:02:44.887Z,91.85
2022-12-24T02:03:44.893Z,91.89
2022-12-24T02:04:44.796Z,91.99
2022-12-24T02:05:44.763Z,91.78
2022-12-24T02:06:44.772Z,91.99
2022-12-24T02:07:44.737Z,91.99
2022-12-24T02:08:44.737Z,92.10
2022-12-24T02:09:44.741Z,92.30
2022-12-24T02:10:44.696Z,92.40
2022-12-24T02:11:44.710Z,92.50
2022-12-24T02:12:44.699Z,92.50
2022-12-24T02:13:44.681Z,92.50
2022-12-24T02:14:44.689Z,92.50
2022-12-24T02:15:44.683Z,92.40
2022-12-24T02:16:44.680Z,92.40
2022-12-24T02:17:44.590Z,92.30
2022-12-24T02:18:44.591Z,92.40
2022-12-24T02:19:44.596Z,92.30
2022-12-24T02:20:44.580Z,92.30
2022-12-24T02:21:44.554Z,92.30
2022-12-24T02:22:44.539Z,92.30
2022-12-24T02:23:44.535Z,92.30
2022-12-24T02:24:44.535Z,92.50
2022-12-24T02:25:44.501Z,92.40
2022-12-24T02:26:44.479Z,92.50
2022-12-24T02:27:44.485Z,92.50
2022-12-24T02:28:44.458Z,92.50
2022-12-24T02:29:44.460Z,92.50
2022-12-24T02:30:44.483Z,92.50
2022-12-24T02:31:44.487Z,92.50
2022-12-24T02:32:44.432Z,92.50
2022-12-24T02:33:44.415Z,92.60
2022-12-24T02:34:44.407Z,92.71
2022-12-24T02:35:44.447Z,92.75
2022-12-24T02:36:44.359Z,92.85
2022-12-24T02:37:44.369Z,92.91
2022-12-24T02:38:44.348Z,92.91
2022-12-24T02:39:44.331Z,92.96
2022-12-24T02:40:44.352Z,92.96
2022-12-24T02:41:44.280Z,92.96
2022-12-24T02:42:44.294Z,92.91
2022-12-24T02:43:44.256Z,92.91
2022-12-24T02:44:44.355Z,92.91
2022-12-24T02:45:44.234Z,92.81
2022-12-24T02:46:44.313Z,93.01
2022-12-24T02:47:44.441Z,93.12
2022-12-24T02:48:44.225Z,93.12
2022-12-24T02:49:44.204Z,93.01
2022-12-24T02:50:44.182Z,93.12
2022-12-24T02:51:44.179Z,93.12
2022-12-24T02:52:44.171Z,93.12
2022-12-24T02:53:44.145Z,93.12
2022-12-24T02:54:44.132Z,93.12
2022-12-24T02:55:44.146Z,93.22
2022-12-24T02:56:44.140Z,93.32
2022-12-24T02:57:44.112Z,93.32
2022-12-24T02:58:44.083Z,93.22
2022-12-24T02:59:44.080Z,93.32
2022-12-24T03:00:44.121Z,93.32
2022-12-24T03:01:44.191Z,93.32
2022-12-24T03:02:44.081Z,93.32
2022-12-24T03:03:44.055Z,93.43
2022-12-24T03:04:44.857Z,93.63
2022-12-24T03:05:44.008Z,93.52
2022-12-24T03:06:43.964Z,93.63
2022-12-24T03:07:43.933Z,93.63
2022-12-24T03:08:43.974Z,93.73
2022-12-24T03:09:43.941Z,93.63
2022-12-24T03:10:43.901Z,93.73
2022-12-24T03:11:43.977Z,93.63
2022-12-24T03:12:43.907Z,93.69
2022-12-24T03:13:43.880Z,93.79
2022-12-24T03:14:43.861Z,94.04
2022-12-24T03:15:43.838Z,93.59
2022-12-24T03:16:43.879Z,93.48
2022-12-24T03:17:43.837Z,93.28
2022-12-24T03:18:43.832Z,93.18
2022-12-24T03:19:43.771Z,93.07
2022-12-24T03:20:43.810Z,92.97
2022-12-24T03:21:43.841Z,92.66
2022-12-24T03:22:43.790Z,92.56
2022-12-24T03:23:43.775Z,92.46
2022-12-24T03:24:43.768Z,92.46
2022-12-24T03:25:43.745Z,92.46
2022-12-24T03:26:43.709Z,92.56
2022-12-24T03:27:43.688Z,92.77
2022-12-24T03:28:43.691Z,92.77
2022-12-24T03:29:43.662Z,92.87
2022-12-24T03:30:43.650Z,92.97
2022-12-24T03:31:43.683Z,92.87
2022-12-24T03:32:43.635Z,93.07
2022-12-24T03:33:43.589Z,93.38
2022-12-24T03:34:43.599Z,93.99
2022-12-24T03:35:43.607Z,94.92
2022-12-24T03:36:43.578Z,95.84
2022-12-24T03:37:43.589Z,96.29
2022-12-24T03:38:43.562Z,96.59
2022-12-24T03:39:43.552Z,96.80
2022-12-24T03:40:43.547Z,97.00
2022-12-24T03:41:43.539Z,97.21
2022-12-24T03:42:43.488Z,97.11
2022-12-24T03:43:43.459Z,97.00
2022-12-24T03:44:43.494Z,97.00
2022-12-24T03:45:43.604Z,97.00
2022-12-24T03:46:43.507Z,96.91
2022-12-24T03:47:43.416Z,96.80
2022-12-24T03:48:43.407Z,96.59
2022-12-24T03:49:43.389Z,95.98
2022-12-24T03:50:43.413Z,95.78
2022-12-24T03:51:43.356Z,95.88
2022-12-24T03:52:43.391Z,95.88
2022-12-24T03:53:43.335Z,95.78
2022-12-24T03:54:43.352Z,95.88
2022-12-24T03:55:43.348Z,95.78
2022-12-24T03:56:43.323Z,95.41
2022-12-24T03:57:43.290Z,95.31
2022-12-24T03:58:43.338Z,95.21
2022-12-24T03:59:43.264Z,95.21
2022-12-24T04:00:43.365Z,95.10
2022-12-24T04:01:43.457Z,95.21
2022-12-24T04:02:43.480Z,95.21
2022-12-24T04:03:43.222Z,94.90
2022-12-24T04:04:43.194Z,94.70
2022-12-24T04:05:43.175Z,94.70
2022-12-24T04:06:43.173Z,94.80
2022-12-24T04:07:43.171Z,94.80
2022-12-24T04:08:43.204Z,94.59
2022-12-24T04:09:44.089Z,94.49
2022-12-24T04:10:43.118Z,94.49
2022-12-24T04:11:43.137Z,94.59
2022-12-24T04:12:43.128Z,94.59
2022-12-24T04:13:43.185Z,94.49
2022-12-24T04:14:43.062Z,94.29
2022-12-24T04:15:43.054Z,94.39
2022-12-24T04:16:43.130Z,94.29
2022-12-24T04:17:43.145Z,94.08
2022-12-24T04:18:43.025Z,94.08
2022-12-24T04:19:43.002Z,93.88
2022-12-24T04:20:42.994Z,93.88
2022-12-24T04:21:43.000Z,93.88
2022-12-24T04:22:42.950Z,93.77
2022-12-24T04:23:42.986Z,93.88
2022-12-24T04:24:43.001Z,93.88
2022-12-24T04:25:43.889Z,94.08
2022-12-24T04:26:42.924Z,93.98
2022-12-24T04:27:42.922Z,94.08
2022-12-24T04:28:42.927Z,93.98
2022-12-24T04:29:42.905Z,94.08
2022-12-24T04:30:42.845Z,94.18
2022-12-24T04:31:42.924Z,94.08
2022-12-24T04:32:42.848Z,94.08
2022-12-24T04:33:42.860Z,94.18
2022-12-24T04:34:42.811Z,94.18
2022-12-24T04:35:42.799Z,94.18
2022-12-24T04:36:42.800Z,94.18
2022-12-24T04:37:42.778Z,94.29
2022-12-24T04:38:42.758Z,94.49
2022-12-24T04:39:42.780Z,94.59
2022-12-24T04:40:42.710Z,94.70
2022-12-24T04:41:42.715Z,94.80
2022-12-24T04:42:42.701Z,95.00
2022-12-24T04:43:42.742Z,95.00
2022-12-24T04:44:42.701Z,95.10
2022-12-24T04:45:42.764Z,95.21
2022-12-24T04:46:42.648Z,95.21
2022-12-24T04:47:42.664Z,95.31
2022-12-24T04:48:42.605Z,95.31
2022-12-24T04:49:42.647Z,95.21
2022-12-24T04:50:42.587Z,95.31
2022-12-24T04:51:42.605Z,95.41
2022-12-24T04:52:42.585Z,95.41
2022-12-24T04:53:42.569Z,95.41
2022-12-24T04:54:42.551Z,95.51
2022-12-24T04:55:42.573Z,95.62
2022-12-24T04:56:42.530Z,95.76
2022-12-24T04:57:43.987Z,95.76
2022-12-24T04:58:42.541Z,95.87
2022-12-24T04:59:42.509Z,95.87
2022-12-24T05:00:42.462Z,95.87
2022-12-24T05:01:42.610Z,95.97
2022-12-24T05:02:42.719Z,96.07
2022-12-24T05:03:42.427Z,96.17
2022-12-24T05:04:42.408Z,96.17
2022-12-24T05:05:42.468Z,96.28
2022-12-24T05:06:42.408Z,96.38
2022-12-24T05:07:42.419Z,96.48
2022-12-24T05:08:43.318Z,96.58
2022-12-24T05:09:42.344Z,96.69
2022-12-24T05:10:42.344Z,96.89
2022-12-24T05:11:42.463Z,96.99
2022-12-24T05:12:42.284Z,96.99
2022-12-24T05:13:46.647Z,97.09
2022-12-24T05:14:43.363Z,97.09
2022-12-24T05:15:42.272Z,97.09
2022-12-24T05:16:42.303Z,97.09
2022-12-24T05:17:42.232Z,96.99
2022-12-24T05:18:42.244Z,96.89
2022-12-24T05:19:42.220Z,96.69
2022-12-24T05:20:42.207Z,96.58
2022-12-24T05:21:42.361Z,96.48
2022-12-24T05:22:42.216Z,96.38
2022-12-24T05:23:42.256Z,96.38
2022-12-24T05:24:42.180Z,96.38
2022-12-24T05:25:42.210Z,96.38
2022-12-24T05:26:42.155Z,96.38
2022-12-24T05:27:50.894Z,96.48
2022-12-24T05:28:43.109Z,96.48
2022-12-24T05:29:42.081Z,96.48
2022-12-24T05:30:42.815Z,96.58
2022-12-24T05:31:43.014Z,96.38
2022-12-24T05:32:42.040Z,96.48
2022-12-24T05:33:42.047Z,96.38
2022-12-24T05:34:42.004Z,96.48
2022-12-24T05:35:42.018Z,96.48
2022-12-24T05:36:42.021Z,96.48
2022-12-24T05:37:42.017Z,96.48
2022-12-24T05:38:41.969Z,96.48
2022-12-24T05:39:42.001Z,96.48
2022-12-24T05:40:41.938Z,96.48
2022-12-24T05:41:41.952Z,96.58
2022-12-24T05:42:41.926Z,96.48
2022-12-24T05:43:41.910Z,96.48
2022-12-24T05:44:41.908Z,96.58
2022-12-24T05:45:41.916Z,96.58
2022-12-24T05:46:41.954Z,96.48
2022-12-24T05:47:43.588Z,96.58
2022-12-24T05:48:41.869Z,96.58
2022-12-24T05:49:41.850Z,96.58
2022-12-24T05:50:41.810Z,96.69
2022-12-24T05:51:41.790Z,96.69
2022-12-24T05:52:41.840Z,96.79
2022-12-24T05:53:41.796Z,96.79
2022-12-24T05:54:41.779Z,96.79
2022-12-24T05:55:41.775Z,96.89
2022-12-24T05:56:41.745Z,96.89
2022-12-24T05:57:41.720Z,96.99
2022-12-24T05:58:41.713Z,97.09
2022-12-24T05:59:41.697Z,97.09
2022-12-24T06:00:41.681Z,97.20
2022-12-24T06:01:42.158Z,97.20
2022-12-24T06:02:42.142Z,97.20
2022-12-24T06:03:42.763Z,97.30
2022-12-24T06:04:44.832Z,97.30
2022-12-24T06:05:42.607Z,97.30
2022-12-24T06:06:41.624Z,97.30
2022-12-24T06:07:42.538Z,97.40
2022-12-24T06:08:41.611Z,97.30
2022-12-24T06:09:41.582Z,97.20
2022-12-24T06:10:41.553Z,96.99
2022-12-24T06:11:41.573Z,96.99
2022-12-24T06:12:41.499Z,96.84
2022-12-24T06:13:41.549Z,96.84
2022-12-24T06:14:41.484Z,96.84
2022-12-24T06:15:41.576Z,96.84
2022-12-24T06:16:41.525Z,96.84
2022-12-24T06:17:41.487Z,96.74
2022-12-24T06:18:41.470Z,96.74
2022-12-24T06:19:41.434Z,96.74
2022-12-24T06:20:42.184Z,96.74
2022-12-24T06:21:41.424Z,96.74
2022-12-24T06:22:41.420Z,96.74
2022-12-24T06:23:41.384Z,96.89
2022-12-24T06:24:41.403Z,96.89
2022-12-24T06:25:41.391Z,96.89
2022-12-24T06:26:41.324Z,96.89
2022-12-24T06:27:41.314Z,96.99
2022-12-24T06:28:42.234Z,97.09
2022-12-24T06:29:41.318Z,97.09
2022-12-24T06:30:41.551Z,97.09
2022-12-24T06:31:41.338Z,97.09
2022-12-24T06:32:41.244Z,97.09
2022-12-24T06:33:41.289Z,97.20
2022-12-24T06:34:41.240Z,97.20
2022-12-24T06:35:41.280Z,97.20
2022-12-24T06:36:41.194Z,97.30
2022-12-24T06:37:41.219Z,97.30
2022-12-24T06:38:41.193Z,97.30
2022-12-24T06:39:41.153Z,97.40
2022-12-24T06:40:41.161Z,97.40
2022-12-24T06:41:41.169Z,97.40
2022-12-24T06:42:41.137Z,97.50
2022-12-24T06:43:41.115Z,97.50
2022-12-24T06:44:41.197Z,97.50
2022-12-24T06:45:41.114Z,97.61
2022-12-24T06:46:41.215Z,97.61
2022-12-24T06:47:41.060Z,97.61
2022-12-24T06:48:41.035Z,97.61
2022-12-24T06:49:41.067Z,97.61
2022-12-24T06:50:41.067Z,97.61
2022-12-24T06:51:41.087Z,97.50
2022-12-24T06:52:40.996Z,97.50
2022-12-24T06:53:41.022Z,97.40
2022-12-24T06:54:40.996Z,97.50
2022-12-24T06:55:41.027Z,97.40
2022-12-24T06:56:40.940Z,97.20
2022-12-24T06:57:40.984Z,97.09
2022-12-24T06:58:40.994Z,96.99
2022-12-24T06:59:40.987Z,96.89
2022-12-24T07:00:41.720Z,96.79
2022-12-24T07:01:41.095Z,96.58
2022-12-24T07:02:40.921Z,96.48
2022-12-24T07:03:40.913Z,96.13
2022-12-24T07:04:40.850Z,95.92
2022-12-24T07:05:40.866Z,95.72
2022-12-24T07:06:40.844Z,95.51
2022-12-24T07:07:40.826Z,95.41
2022-12-24T07:08:40.805Z,95.31
2022-12-24T07:09:40.790Z,95.31
2022-12-24T07:10:41.571Z,95.10
2022-12-24T07:11:40.817Z,95.00
2022-12-24T07:12:40.706Z,95.00
2022-12-24T07:13:40.718Z,94.80
2022-12-24T07:14:40.730Z,94.59
2022-12-24T07:15:40.810Z,94.39
2022-12-24T07:16:42.713Z,94.29
2022-12-24T07:17:40.812Z,94.08
2022-12-24T07:18:40.786Z,94.08
2022-12-24T07:19:41.461Z,94.08
2022-12-24T07:20:40.628Z,93.77
2022-12-24T07:21:40.683Z,93.77
2022-12-24T07:22:40.643Z,93.77
2022-12-24T07:23:40.634Z,93.77
2022-12-24T07:24:40.568Z,93.77
2022-12-24T07:25:40.556Z,93.77
2022-12-24T07:26:40.557Z,93.67
2022-12-24T07:27:40.516Z,93.77
2022-12-24T07:28:40.517Z,93.88
2022-12-24T07:29:40.521Z,93.77
2022-12-24T07:30:41.277Z,93.88
2022-12-24T07:31:40.529Z,93.77
2022-12-24T07:32:40.498Z,93.67
2022-12-24T07:33:40.473Z,93.52
2022-12-24T07:34:40.429Z,93.43
2022-12-24T07:35:40.460Z,93.22
2022-12-24T07:36:40.415Z,93.32
2022-12-24T07:37:40.466Z,93.01
2022-12-24T07:38:40.376Z,92.81
2022-12-24T07:39:40.441Z,92.71
2022-12-24T07:40:40.401Z,92.60
2022-12-24T07:41:41.988Z,92.71
2022-12-24T07:42:40.366Z,92.81
2022-12-24T07:43:49.790Z,92.91
2022-12-24T07:44:40.321Z,93.01
2022-12-24T07:45:40.332Z,93.12
2022-12-24T07:46:40.503Z,93.37
2022-12-24T07:47:40.264Z,93.22
2022-12-24T07:48:40.285Z,93.22
2022-12-24T07:49:40.300Z,93.37
2022-12-24T07:50:40.257Z,93.37
2022-12-24T07:51:40.217Z,93.47
2022-12-24T07:52:40.217Z,93.57
2022-12-24T07:53:40.223Z,93.67
2022-12-24T07:54:40.173Z,93.67
2022-12-24T07:55:40.902Z,93.77
2022-12-24T07:56:40.181Z,93.88
2022-12-24T07:57:40.152Z,93.98
2022-12-24T07:58:40.133Z,93.98
2022-12-24T07:59:40.140Z,94.08
2022-12-24T08:00:40.112Z,94.08
2022-12-24T08:01:40.185Z,94.18
2022-12-24T08:02:40.287Z,94.29
2022-12-24T08:03:40.275Z,94.33
2022-12-24T08:04:40.033Z,94.43
2022-12-24T08:05:40.067Z,94.54
2022-12-24T08:06:40.041Z,94.43
2022-12-24T08:07:40.047Z,94.54
2022-12-24T08:08:40.063Z,94.64
2022-12-24T08:09:40.024Z,94.74
2022-12-24T08:10:39.961Z,94.74
2022-12-24T08:11:40.924Z,94.74
2022-12-24T08:12:39.967Z,94.74
2022-12-24T08:13:39.927Z,94.74
2022-12-24T08:14:39.916Z,94.70
2022-12-24T08:15:39.945Z,94.70
2022-12-24T08:16:39.917Z,94.70
2022-12-24T08:17:39.908Z,94.70
2022-12-24T08:18:39.881Z,94.70
2022-12-24T08:19:39.966Z,94.70
2022-12-24T08:20:39.837Z,94.80
2022-12-24T08:21:39.876Z,94.80
2022-12-24T08:22:39.804Z,94.80
2022-12-24T08:23:39.858Z,94.90
2022-12-24T08:24:39.829Z,95.10
2022-12-24T08:25:39.803Z,95.21
2022-12-24T08:26:39.785Z,95.31
2022-12-24T08:27:39.747Z,95.21
2022-12-24T08:28:39.745Z,95.00
2022-12-24T08:29:39.734Z,95.10
2022-12-24T08:30:39.688Z,95.10
2022-12-24T08:31:39.781Z,95.10
2022-12-24T08:32:39.703Z,95.10
2022-12-24T08:33:39.694Z,95.21
2022-12-24T08:34:39.657Z,95.21
2022-12-24T08:35:39.661Z,95.21
2022-12-24T08:36:39.644Z,95.21
2022-12-24T08:37:39.647Z,95.21
2022-12-24T08:38:39.654Z,95.21
2022-12-24T08:39:39.576Z,95.21
2022-12-24T08:40:39.611Z,95.31
2022-12-24T08:41:39.566Z,95.31
2022-12-24T08:42:39.664Z,95.31
2022-12-24T08:43:39.619Z,95.31
2022-12-24T08:44:39.516Z,95.31
2022-12-24T08:45:40.954Z,95.31
2022-12-24T08:46:39.591Z,95.41
2022-12-24T08:47:39.459Z,95.41
2022-12-24T08:48:39.495Z,95.41
2022-12-24T08:49:39.444Z,95.51
2022-12-24T08:50:39.476Z,95.51
2022-12-24T08:51:39.415Z,95.51
2022-12-24T08:52:39.444Z,95.62
2022-12-24T08:53:39.419Z,95.62
2022-12-24T08:54:39.409Z,95.62
2022-12-24T08:55:39.390Z,95.51
2022-12-24T08:56:39.380Z,95.51
2022-12-24T08:57:39.341Z,95.62
2022-12-24T08:58:39.369Z,95.62
2022-12-24T08:59:39.310Z,95.62
2022-12-24T09:00:39.347Z,95.62
2022-12-24T09:01:39.440Z,95.62
2022-12-24T09:02:39.390Z,95.62
2022-12-24T09:03:39.456Z,95.72
2022-12-24T09:04:39.255Z,95.51
2022-12-24T09:05:39.225Z,95.51
2022-12-24T09:06:39.277Z,95.62
2022-12-24T09:07:39.237Z,95.51
2022-12-24T09:08:39.243Z,95.51
2022-12-24T09:09:39.172Z,95.41
2022-12-24T09:10:39.201Z,95.41
2022-12-24T09:11:39.161Z,95.21
2022-12-24T09:12:39.154Z,95.21
2022-12-24T09:13:39.123Z,95.21
2022-12-24T09:14:39.159Z,95.17
2022-12-24T09:15:39.135Z,95.21
2022-12-24T09:16:39.207Z,95.17
2022-12-24T09:17:39.091Z,95.21
2022-12-24T09:18:39.098Z,95.17
2022-12-24T09:19:39.075Z,95.17
2022-12-24T09:20:44.289Z,95.21
2022-12-24T09:21:40.046Z,95.31
2022-12-24T09:22:39.013Z,95.31
2022-12-24T09:23:38.990Z,95.31
2022-12-24T09:24:39.017Z,95.41
2022-12-24T09:25:38.973Z,95.51
2022-12-24T09:26:39.011Z,95.62
2022-12-24T09:27:38.948Z,95.72
2022-12-24T09:28:38.975Z,95.72
2022-12-24T09:29:38.907Z,95.72
2022-12-24T09:30:38.948Z,95.82
2022-12-24T09:31:38.924Z,95.82
2022-12-24T09:32:38.947Z,95.82
2022-12-24T09:33:38.914Z,95.92
2022-12-24T09:34:38.884Z,95.92
2022-12-24T09:35:38.860Z,95.82
2022-12-24T09:36:38.855Z,95.88
2022-12-24T09:37:38.840Z,95.88
2022-12-24T09:38:38.810Z,95.92
2022-12-24T09:39:38.776Z,95.88
2022-12-24T09:40:38.805Z,95.92
2022-12-24T09:41:38.794Z,95.88
2022-12-24T09:42:38.751Z,96.03
2022-12-24T09:43:38.726Z,96.03
2022-12-24T09:44:38.772Z,95.88
2022-12-24T09:45:38.758Z,95.88
2022-12-24T09:46:38.695Z,95.98
2022-12-24T09:47:38.724Z,95.98
2022-12-24T09:48:38.702Z,96.08
2022-12-24T09:49:38.673Z,96.08
2022-12-24T09:50:38.673Z,96.08
2022-12-24T09:51:38.665Z,96.08
2022-12-24T09:52:38.673Z,96.08
2022-12-24T09:53:38.575Z,96.08
2022-12-24T09:54:38.584Z,96.08
2022-12-24T09:55:38.602Z,95.98
2022-12-24T09:56:38.632Z,95.98
2022-12-24T09:57:38.580Z,95.98
2022-12-24T09:58:38.584Z,95.98
2022-12-24T09:59:38.561Z,95.88
2022-12-24T10:00:38.557Z,95.88
2022-12-24T10:01:38.714Z,95.98
2022-12-24T10:02:38.715Z,95.98
2022-12-24T10:03:38.543Z,95.98
2022-12-24T10:04:38.519Z,95.98
2022-12-24T10:05:38.484Z,95.88
2022-12-24T10:06:38.485Z,95.88
2022-12-24T10:07:38.462Z,95.88
2022-12-24T10:08:38.416Z,95.98
2022-12-24T10:09:38.391Z,95.98
2022-12-24T10:10:38.383Z,95.88
2022-12-24T10:11:38.382Z,95.98
2022-12-24T10:12:38.390Z,95.88
2022-12-24T10:13:38.364Z,95.73
2022-12-24T10:14:38.408Z,95.84
2022-12-24T10:15:38.318Z,95.53
2022-12-24T10:16:38.460Z,95.53
2022-12-24T10:17:38.369Z,95.43
2022-12-24T10:18:38.304Z,95.22
2022-12-24T10:19:38.272Z,94.71
2022-12-24T10:20:38.269Z,94.30
2022-12-24T10:21:38.245Z,94.30
2022-12-24T10:22:38.243Z,94.30
2022-12-24T10:23:38.234Z,94.26
2022-12-24T10:24:38.199Z,94.26
2022-12-24T10:25:38.202Z,94.26
2022-12-24T10:26:38.197Z,94.36
2022-12-24T10:27:38.204Z,94.36
2022-12-24T10:28:38.165Z,94.46
2022-12-24T10:29:38.146Z,94.56
2022-12-24T10:30:38.182Z,94.56
2022-12-24T10:31:38.136Z,94.56
2022-12-24T10:32:38.116Z,94.46
2022-12-24T10:33:38.072Z,94.26
2022-12-24T10:34:38.102Z,94.36
2022-12-24T10:35:38.079Z,94.46
2022-12-24T10:36:38.062Z,94.46
2022-12-24T10:37:38.050Z,94.56
2022-12-24T10:38:38.019Z,94.56
2022-12-24T10:39:38.015Z,94.67
2022-12-24T10:40:38.017Z,94.67
2022-12-24T10:41:37.957Z,94.77
2022-12-24T10:42:38.004Z,94.87
2022-12-24T10:43:37.974Z,94.87
2022-12-24T10:44:37.965Z,94.87
2022-12-24T10:45:37.947Z,94.97
2022-12-24T10:46:37.976Z,94.97
2022-12-24T10:47:37.904Z,94.97
2022-12-24T10:48:37.891Z,95.12
2022-12-24T10:49:37.898Z,95.07
2022-12-24T10:50:37.856Z,95.07
2022-12-24T10:51:38.602Z,95.07
2022-12-24T10:52:37.828Z,94.97
2022-12-24T10:53:37.848Z,94.97
2022-12-24T10:54:37.941Z,94.97
2022-12-24T10:55:37.815Z,94.97
2022-12-24T10:56:37.859Z,94.87
2022-12-24T10:57:37.781Z,94.87
2022-12-24T10:58:37.763Z,95.02
2022-12-24T10:59:37.723Z,95.12
2022-12-24T11:00:37.799Z,95.22
2022-12-24T11:01:37.779Z,95.22
2022-12-24T11:02:38.030Z,95.22
2022-12-24T11:03:37.734Z,95.22
2022-12-24T11:04:37.692Z,95.22
2022-12-24T11:05:37.642Z,95.32
2022-12-24T11:06:37.699Z,95.32
2022-12-24T11:07:37.628Z,95.18
2022-12-24T11:08:37.715Z,95.07
2022-12-24T11:09:37.619Z,94.87
2022-12-24T11:10:37.624Z,94.56
2022-12-24T11:11:37.597Z,94.46
2022-12-24T11:12:37.575Z,94.46
2022-12-24T11:13:39.038Z,94.15
2022-12-24T11:14:37.549Z,93.54
2022-12-24T11:15:37.532Z,93.54
2022-12-24T11:16:37.541Z,93.24
2022-12-24T11:17:37.521Z,93.24
2022-12-24T11:18:37.517Z,93.13
2022-12-24T11:19:37.492Z,93.03
2022-12-24T11:20:37.484Z,92.93
2022-12-24T11:21:37.458Z,92.83
2022-12-24T11:22:37.480Z,92.78
2022-12-24T11:23:37.448Z,92.78
2022-12-24T11:24:37.424Z,92.68
2022-12-24T11:25:44.990Z,92.27
2022-12-24T11:26:37.377Z,92.17
2022-12-24T11:27:42.414Z,92.47
2022-12-24T11:28:37.424Z,92.17
2022-12-24T11:29:37.361Z,91.96
2022-12-24T11:30:37.420Z,91.86
2022-12-24T11:31:37.605Z,91.66
2022-12-24T11:32:37.301Z,91.66
2022-12-24T11:33:37.303Z,91.56
2022-12-24T11:34:37.315Z,91.76
2022-12-24T11:35:37.251Z,91.76
2022-12-24T11:36:37.251Z,91.46
2022-12-24T11:37:37.230Z,91.35
2022-12-24T11:38:37.253Z,91.20
2022-12-24T11:39:37.246Z,91.31
2022-12-24T11:40:37.234Z,91.41
2022-12-24T11:41:37.217Z,91.31
2022-12-24T11:42:37.232Z,91.11
2022-12-24T11:43:37.206Z,91.11
2022-12-24T11:44:37.165Z,90.90
2022-12-24T11:45:37.118Z,90.70
2022-12-24T11:46:37.182Z,90.43
2022-12-24T11:47:37.107Z,90.33
2022-12-24T11:48:37.099Z,90.12
2022-12-24T11:49:37.117Z,90.08
2022-12-24T11:50:37.064Z,90.08
2022-12-24T11:51:37.039Z,89.98
2022-12-24T11:52:37.075Z,89.98
2022-12-24T11:53:37.010Z,89.98
2022-12-24T11:54:37.065Z,90.08
2022-12-24T11:55:36.990Z,90.08
2022-12-24T11:56:37.016Z,90.08
2022-12-24T11:57:36.992Z,89.98
2022-12-24T11:58:37.013Z,89.78
2022-12-24T11:59:36.997Z,89.67
2022-12-24T12:00:36.949Z,89.78
2022-12-24T12:01:37.003Z,89.67
2022-12-24T12:02:36.951Z,89.78
2022-12-24T12:03:37.044Z,89.78
2022-12-24T12:04:36.911Z,89.78
2022-12-24T12:05:36.888Z,89.78
2022-12-24T12:06:36.884Z,89.98
2022-12-24T12:07:36.857Z,90.19
2022-12-24T12:08:36.853Z,90.19
2022-12-24T12:09:36.831Z,90.39
2022-12-24T12:10:36.857Z,90.49
2022-12-24T12:11:36.785Z,90.70
2022-12-24T12:12:36.783Z,90.70
2022-12-24T12:13:36.761Z,90.80
2022-12-24T12:14:36.796Z,91.00
2022-12-24T12:15:36.762Z,90.90
2022-12-24T12:16:36.802Z,90.80
2022-12-24T12:17:36.722Z,91.00
2022-12-24T12:18:36.705Z,91.31
2022-12-24T12:19:36.679Z,91.52
2022-12-24T12:20:36.707Z,91.41
2022-12-24T12:21:36.655Z,91.31
2022-12-24T12:22:36.680Z,91.20
2022-12-24T12:23:36.670Z,91.20
2022-12-24T12:24:36.652Z,91.31
2022-12-24T12:25:36.610Z,91.41
2022-12-24T12:26:36.594Z,91.61
2022-12-24T12:27:36.632Z,91.72
2022-12-24T12:28:36.612Z,91.82
2022-12-24T12:29:36.565Z,91.72
2022-12-24T12:30:36.588Z,91.52
2022-12-24T12:31:36.633Z,91.61
2022-12-24T12:32:36.582Z,91.41
2022-12-24T12:33:36.523Z,91.41
2022-12-24T12:34:36.503Z,91.41
2022-12-24T12:35:36.510Z,91.31
2022-12-24T12:36:36.463Z,91.06
2022-12-24T12:37:36.475Z,90.75
2022-12-24T12:38:36.432Z,90.86
2022-12-24T12:39:36.439Z,90.86
2022-12-24T12:40:36.472Z,90.66
2022-12-24T12:41:36.419Z,90.35
2022-12-24T12:42:36.370Z,90.25
2022-12-24T12:43:36.396Z,90.35
2022-12-24T12:44:36.356Z,90.08
2022-12-24T12:45:36.372Z,90.08
2022-12-24T12:46:36.393Z,90.08
2022-12-24T12:47:36.372Z,89.78
2022-12-24T12:48:36.319Z,89.67
2022-12-24T12:49:36.301Z,89.78
2022-12-24T12:50:36.316Z,89.88
2022-12-24T12:51:36.334Z,89.37
2022-12-24T12:52:36.269Z,89.37